sensor_id;sensor_type;location;lat;lon;timestamp;pressure;altitude;pressure_sealevel;temperature
45393;BMP280;31129;44.810;10.334;2022-07-23T00:00:53;100654.56;;;31.72
45393;BMP280;31129;44.810;10.334;2022-07-23T00:03:18;100665.31;;;31.61
45393;BMP280;31129;44.810;10.334;2022-07-23T00:05:47;100652.84;;;31.53
45393;BMP280;31129;44.810;10.334;2022-07-23T00:08:12;100653.81;;;31.44
45393;BMP280;31129;44.810;10.334;2022-07-23T00:10:38;100648.91;;;31.44
45393;BMP280;31129;44.810;10.334;2022-07-23T00:13:04;100648.97;;;31.33
45393;BMP280;31129;44.810;10.334;2022-07-23T00:15:29;100643.94;;;31.31
45393;BMP280;31129;44.810;10.334;2022-07-23T00:17:55;100651.84;;;31.21
45393;BMP280;31129;44.810;10.334;2022-07-23T00:20:20;100645.47;;;31.21
45393;BMP280;31129;44.810;10.334;2022-07-23T00:22:50;100642.47;;;31.17
45393;BMP280;31129;44.810;10.334;2022-07-23T00:25:16;100645.16;;;31.14
45393;BMP280;31129;44.810;10.334;2022-07-23T00:27:45;100646.63;;;31.16
45393;BMP280;31129;44.810;10.334;2022-07-23T00:30:11;100640.16;;;31.13
45393;BMP280;31129;44.810;10.334;2022-07-23T00:32:50;100640.84;;;31.00
45393;BMP280;31129;44.810;10.334;2022-07-23T00:35:16;100643.66;;;31.00
45393;BMP280;31129;44.810;10.334;2022-07-23T00:37:42;100639.97;;;30.97
45393;BMP280;31129;44.810;10.334;2022-07-23T00:40:08;100639.97;;;30.97
45393;BMP280;31129;44.810;10.334;2022-07-23T00:42:34;100632.53;;;30.90
45393;BMP280;31129;44.810;10.334;2022-07-23T00:44:59;100644.22;;;30.85
45393;BMP280;31129;44.810;10.334;2022-07-23T00:47:25;100646.81;;;30.81
45393;BMP280;31129;44.810;10.334;2022-07-23T00:49:51;100638.22;;;30.79
45393;BMP280;31129;44.810;10.334;2022-07-23T00:52:16;100627.81;;;30.81
45393;BMP280;31129;44.810;10.334;2022-07-23T00:54:42;100628.72;;;30.72
45393;BMP280;31129;44.810;10.334;2022-07-23T00:57:08;100625.34;;;30.76
45393;BMP280;31129;44.810;10.334;2022-07-23T00:59:34;100627.16;;;30.57
45393;BMP280;31129;44.810;10.334;2022-07-23T01:01:59;100627.50;;;30.63
45393;BMP280;31129;44.810;10.334;2022-07-23T01:04:25;100620.91;;;30.59
45393;BMP280;31129;44.810;10.334;2022-07-23T01:06:50;100618.63;;;30.55
45393;BMP280;31129;44.810;10.334;2022-07-23T01:09:17;100618.81;;;30.59
45393;BMP280;31129;44.810;10.334;2022-07-23T01:11:46;100612.63;;;30.49
45393;BMP280;31129;44.810;10.334;2022-07-23T01:14:13;100613.13;;;30.46
45393;BMP280;31129;44.810;10.334;2022-07-23T01:16:40;100615.94;;;30.46
45393;BMP280;31129;44.810;10.334;2022-07-23T01:19:07;100614.75;;;30.37
45393;BMP280;31129;44.810;10.334;2022-07-23T01:21:36;100607.41;;;30.32
45393;BMP280;31129;44.810;10.334;2022-07-23T01:24:01;100601.94;;;30.23
45393;BMP280;31129;44.810;10.334;2022-07-23T01:26:27;100600.72;;;30.14
45393;BMP280;31129;44.810;10.334;2022-07-23T01:28:53;100604.25;;;30.15
45393;BMP280;31129;44.810;10.334;2022-07-23T01:31:19;100603.91;;;30.08
45393;BMP280;31129;44.810;10.334;2022-07-23T01:33:45;100603.03;;;30.06
45393;BMP280;31129;44.810;10.334;2022-07-23T01:36:10;100607.47;;;29.97
45393;BMP280;31129;44.810;10.334;2022-07-23T01:38:36;100604.56;;;29.95
45393;BMP280;31129;44.810;10.334;2022-07-23T01:41:02;100599.88;;;30.00
45393;BMP280;31129;44.810;10.334;2022-07-23T01:43:30;100603.22;;;29.96
45393;BMP280;31129;44.810;10.334;2022-07-23T01:45:55;100601.47;;;29.91
45393;BMP280;31129;44.810;10.334;2022-07-23T01:48:22;100609.81;;;29.89
45393;BMP280;31129;44.810;10.334;2022-07-23T01:51:08;100605.53;;;29.88
45393;BMP280;31129;44.810;10.334;2022-07-23T01:53:41;100620.81;;;29.97
45393;BMP280;31129;44.810;10.334;2022-07-23T01:56:07;100614.94;;;30.04
45393;BMP280;31129;44.810;10.334;2022-07-23T01:58:33;100617.47;;;30.24
45393;BMP280;31129;44.810;10.334;2022-07-23T02:00:58;100629.69;;;30.28
45393;BMP280;31129;44.810;10.334;2022-07-23T02:03:27;100630.09;;;30.23
45393;BMP280;31129;44.810;10.334;2022-07-23T02:05:53;100643.34;;;30.08
45393;BMP280;31129;44.810;10.334;2022-07-23T02:08:24;100650.56;;;30.00
45393;BMP280;31129;44.810;10.334;2022-07-23T02:10:49;100645.47;;;29.96
45393;BMP280;31129;44.810;10.334;2022-07-23T02:13:17;100647.66;;;29.98
45393;BMP280;31129;44.810;10.334;2022-07-23T02:15:42;100648.88;;;29.95
45393;BMP280;31129;44.810;10.334;2022-07-23T02:18:08;100642.75;;;29.75
45393;BMP280;31129;44.810;10.334;2022-07-23T02:20:33;100647.28;;;29.80
45393;BMP280;31129;44.810;10.334;2022-07-23T02:22:59;100658.16;;;29.74
45393;BMP280;31129;44.810;10.334;2022-07-23T02:25:25;100655.34;;;29.74
45393;BMP280;31129;44.810;10.334;2022-07-23T02:27:56;100660.09;;;29.60
45393;BMP280;31129;44.810;10.334;2022-07-23T02:30:21;100652.13;;;29.45
45393;BMP280;31129;44.810;10.334;2022-07-23T02:32:47;100649.19;;;29.31
45393;BMP280;31129;44.810;10.334;2022-07-23T02:35:12;100653.09;;;29.26
45393;BMP280;31129;44.810;10.334;2022-07-23T02:37:38;100668.72;;;29.18
45393;BMP280;31129;44.810;10.334;2022-07-23T02:40:04;100671.63;;;29.08
45393;BMP280;31129;44.810;10.334;2022-07-23T02:42:31;100672.78;;;28.93
45393;BMP280;31129;44.810;10.334;2022-07-23T02:44:56;100661.53;;;28.93
45393;BMP280;31129;44.810;10.334;2022-07-23T02:47:22;100671.84;;;29.00
45393;BMP280;31129;44.810;10.334;2022-07-23T02:49:47;100669.63;;;28.99
45393;BMP280;31129;44.810;10.334;2022-07-23T02:52:13;100666.06;;;28.98
45393;BMP280;31129;44.810;10.334;2022-07-23T02:54:40;100671.09;;;29.00
45393;BMP280;31129;44.810;10.334;2022-07-23T02:57:06;100671.34;;;29.04
45393;BMP280;31129;44.810;10.334;2022-07-23T02:59:31;100671.25;;;29.02
45393;BMP280;31129;44.810;10.334;2022-07-23T03:02:00;100677.97;;;29.08
45393;BMP280;31129;44.810;10.334;2022-07-23T03:04:26;100673.91;;;29.00
45393;BMP280;31129;44.810;10.334;2022-07-23T03:06:52;100671.63;;;29.08
45393;BMP280;31129;44.810;10.334;2022-07-23T03:09:17;100674.22;;;29.16
45393;BMP280;31129;44.810;10.334;2022-07-23T03:11:43;100667.69;;;29.01
45393;BMP280;31129;44.810;10.334;2022-07-23T03:14:11;100669.41;;;29.06
45393;BMP280;31129;44.810;10.334;2022-07-23T03:16:38;100673.81;;;29.09
45393;BMP280;31129;44.810;10.334;2022-07-23T03:19:04;100667.47;;;29.09
45393;BMP280;31129;44.810;10.334;2022-07-23T03:21:29;100663.91;;;29.08
45393;BMP280;31129;44.810;10.334;2022-07-23T03:23:55;100660.38;;;29.08
45393;BMP280;31129;44.810;10.334;2022-07-23T03:26:23;100651.19;;;29.07
45393;BMP280;31129;44.810;10.334;2022-07-23T03:28:51;100656.13;;;29.19
45393;BMP280;31129;44.810;10.334;2022-07-23T03:31:18;100647.69;;;29.19
45393;BMP280;31129;44.810;10.334;2022-07-23T03:33:43;100649.75;;;29.18
45393;BMP280;31129;44.810;10.334;2022-07-23T03:36:09;100645.25;;;29.25
45393;BMP280;31129;44.810;10.334;2022-07-23T03:38:38;100650.78;;;29.34
45393;BMP280;31129;44.810;10.334;2022-07-23T03:41:03;100654.72;;;29.41
45393;BMP280;31129;44.810;10.334;2022-07-23T03:43:29;100663.00;;;29.39
45393;BMP280;31129;44.810;10.334;2022-07-23T03:45:54;100665.22;;;29.40
45393;BMP280;31129;44.810;10.334;2022-07-23T03:48:20;100666.69;;;29.41
45393;BMP280;31129;44.810;10.334;2022-07-23T03:50:45;100668.03;;;29.40
45393;BMP280;31129;44.810;10.334;2022-07-23T03:53:11;100668.78;;;29.41
45393;BMP280;31129;44.810;10.334;2022-07-23T03:55:37;100669.38;;;29.39
45393;BMP280;31129;44.810;10.334;2022-07-23T03:58:02;100665.59;;;29.35
45393;BMP280;31129;44.810;10.334;2022-07-23T04:00:28;100669.16;;;29.35
45393;BMP280;31129;44.810;10.334;2022-07-23T04:02:53;100669.25;;;29.37
45393;BMP280;31129;44.810;10.334;2022-07-23T04:05:19;100674.50;;;29.31
45393;BMP280;31129;44.810;10.334;2022-07-23T04:07:49;100672.78;;;29.26
45393;BMP280;31129;44.810;10.334;2022-07-23T04:10:14;100679.28;;;29.40
45393;BMP280;31129;44.810;10.334;2022-07-23T04:12:40;100675.47;;;29.36
45393;BMP280;31129;44.810;10.334;2022-07-23T04:15:07;100671.97;;;29.35
45393;BMP280;31129;44.810;10.334;2022-07-23T04:17:33;100682.84;;;29.41
45393;BMP280;31129;44.810;10.334;2022-07-23T04:19:59;100681.84;;;29.36
45393;BMP280;31129;44.810;10.334;2022-07-23T04:22:29;100680.75;;;29.30
45393;BMP280;31129;44.810;10.334;2022-07-23T04:24:55;100690.94;;;29.46
45393;BMP280;31129;44.810;10.334;2022-07-23T04:27:21;100678.59;;;29.51
45393;BMP280;31129;44.810;10.334;2022-07-23T04:29:47;100676.09;;;29.34
45393;BMP280;31129;44.810;10.334;2022-07-23T04:32:13;100677.44;;;29.33
45393;BMP280;31129;44.810;10.334;2022-07-23T04:34:39;100672.78;;;29.26
45393;BMP280;31129;44.810;10.334;2022-07-23T04:37:05;100674.22;;;29.27
45393;BMP280;31129;44.810;10.334;2022-07-23T04:39:31;100680.41;;;29.35
45393;BMP280;31129;44.810;10.334;2022-07-23T04:41:57;100683.94;;;29.47
45393;BMP280;31129;44.810;10.334;2022-07-23T04:44:23;100686.25;;;29.39
45393;BMP280;31129;44.810;10.334;2022-07-23T04:46:49;100693.97;;;29.39
45393;BMP280;31129;44.810;10.334;2022-07-23T04:49:14;100690.75;;;29.33
45393;BMP280;31129;44.810;10.334;2022-07-23T04:51:40;100690.50;;;29.17
45393;BMP280;31129;44.810;10.334;2022-07-23T04:54:05;100690.75;;;28.88
45393;BMP280;31129;44.810;10.334;2022-07-23T04:56:31;100685.13;;;28.88
45393;BMP280;31129;44.810;10.334;2022-07-23T04:58:57;100679.69;;;28.59
45393;BMP280;31129;44.810;10.334;2022-07-23T05:01:23;100681.22;;;28.51
45393;BMP280;31129;44.810;10.334;2022-07-23T05:03:48;100681.25;;;28.20
45393;BMP280;31129;44.810;10.334;2022-07-23T05:06:15;100680.09;;;28.13
45393;BMP280;31129;44.810;10.334;2022-07-23T05:08:40;100680.94;;;28.47
45393;BMP280;31129;44.810;10.334;2022-07-23T05:11:08;100688.59;;;28.56
45393;BMP280;31129;44.810;10.334;2022-07-23T05:13:33;100684.38;;;28.45
45393;BMP280;31129;44.810;10.334;2022-07-23T05:15:59;100699.41;;;28.50
45393;BMP280;31129;44.810;10.334;2022-07-23T05:18:25;100688.66;;;28.46
45393;BMP280;31129;44.810;10.334;2022-07-23T05:20:50;100688.16;;;28.29
45393;BMP280;31129;44.810;10.334;2022-07-23T05:23:19;100691.28;;;28.23
45393;BMP280;31129;44.810;10.334;2022-07-23T05:25:46;100677.22;;;28.23
45393;BMP280;31129;44.810;10.334;2022-07-23T05:28:12;100678.72;;;28.55
45393;BMP280;31129;44.810;10.334;2022-07-23T05:30:37;100679.03;;;28.71
45393;BMP280;31129;44.810;10.334;2022-07-23T05:33:06;100676.19;;;28.92
45393;BMP280;31129;44.810;10.334;2022-07-23T05:35:33;100674.28;;;28.73
45393;BMP280;31129;44.810;10.334;2022-07-23T05:38:21;100674.69;;;28.79
45393;BMP280;31129;44.810;10.334;2022-07-23T05:40:48;100673.00;;;28.43
45393;BMP280;31129;44.810;10.334;2022-07-23T05:43:13;100670.69;;;28.61
45393;BMP280;31129;44.810;10.334;2022-07-23T05:45:39;100666.44;;;28.72
45393;BMP280;31129;44.810;10.334;2022-07-23T05:48:04;100657.84;;;28.58
45393;BMP280;31129;44.810;10.334;2022-07-23T05:50:35;100664.44;;;28.62
45393;BMP280;31129;44.810;10.334;2022-07-23T05:53:09;100664.97;;;28.71
45393;BMP280;31129;44.810;10.334;2022-07-23T05:55:55;100678.13;;;28.68
45393;BMP280;31129;44.810;10.334;2022-07-23T05:58:21;100675.63;;;28.72
45393;BMP280;31129;44.810;10.334;2022-07-23T06:00:46;100666.16;;;28.89
45393;BMP280;31129;44.810;10.334;2022-07-23T06:03:12;100670.94;;;28.98
45393;BMP280;31129;44.810;10.334;2022-07-23T06:05:38;100676.13;;;29.01
45393;BMP280;31129;44.810;10.334;2022-07-23T06:08:04;100678.94;;;29.01
45393;BMP280;31129;44.810;10.334;2022-07-23T06:10:30;100671.13;;;29.11
45393;BMP280;31129;44.810;10.334;2022-07-23T06:12:56;100676.06;;;29.23
45393;BMP280;31129;44.810;10.334;2022-07-23T06:15:23;100680.78;;;29.41
45393;BMP280;31129;44.810;10.334;2022-07-23T06:17:48;100691.88;;;29.39
45393;BMP280;31129;44.810;10.334;2022-07-23T06:20:14;100689.94;;;29.53
45393;BMP280;31129;44.810;10.334;2022-07-23T06:22:41;100694.00;;;29.62
45393;BMP280;31129;44.810;10.334;2022-07-23T06:25:07;100689.13;;;29.74
45393;BMP280;31129;44.810;10.334;2022-07-23T06:27:32;100688.41;;;29.97
45393;BMP280;31129;44.810;10.334;2022-07-23T06:29:58;100687.44;;;30.04
45393;BMP280;31129;44.810;10.334;2022-07-23T06:32:23;100699.66;;;30.20
45393;BMP280;31129;44.810;10.334;2022-07-23T06:34:49;100699.03;;;30.33
45393;BMP280;31129;44.810;10.334;2022-07-23T06:37:15;100689.09;;;30.32
45393;BMP280;31129;44.810;10.334;2022-07-23T06:39:40;100700.38;;;30.44
45393;BMP280;31129;44.810;10.334;2022-07-23T06:42:06;100698.16;;;30.42
45393;BMP280;31129;44.810;10.334;2022-07-23T06:44:37;100713.81;;;30.45
45393;BMP280;31129;44.810;10.334;2022-07-23T06:47:02;100719.16;;;30.28
45393;BMP280;31129;44.810;10.334;2022-07-23T06:49:29;100725.72;;;30.44
45393;BMP280;31129;44.810;10.334;2022-07-23T06:51:56;100726.59;;;30.35
45393;BMP280;31129;44.810;10.334;2022-07-23T06:54:22;100723.13;;;30.48
45393;BMP280;31129;44.810;10.334;2022-07-23T06:56:47;100725.66;;;30.67
45393;BMP280;31129;44.810;10.334;2022-07-23T06:59:14;100726.25;;;30.77
45393;BMP280;31129;44.810;10.334;2022-07-23T07:01:41;100730.44;;;30.64
45393;BMP280;31129;44.810;10.334;2022-07-23T07:04:07;100730.03;;;30.82
45393;BMP280;31129;44.810;10.334;2022-07-23T07:06:32;100740.72;;;30.83
45393;BMP280;31129;44.810;10.334;2022-07-23T07:09:00;100739.97;;;30.83
45393;BMP280;31129;44.810;10.334;2022-07-23T07:11:26;100743.41;;;30.81
45393;BMP280;31129;44.810;10.334;2022-07-23T07:13:52;100743.25;;;30.91
45393;BMP280;31129;44.810;10.334;2022-07-23T07:16:17;100742.91;;;31.10
45393;BMP280;31129;44.810;10.334;2022-07-23T07:18:43;100756.28;;;31.09
45393;BMP280;31129;44.810;10.334;2022-07-23T07:21:08;100752.69;;;31.21
45393;BMP280;31129;44.810;10.334;2022-07-23T07:23:34;100760.13;;;31.28
45393;BMP280;31129;44.810;10.334;2022-07-23T07:25:59;100764.56;;;31.31
45393;BMP280;31129;44.810;10.334;2022-07-23T07:28:25;100765.19;;;31.29
45393;BMP280;31129;44.810;10.334;2022-07-23T07:30:51;100770.75;;;31.16
45393;BMP280;31129;44.810;10.334;2022-07-23T07:33:16;100766.06;;;31.20
45393;BMP280;31129;44.810;10.334;2022-07-23T07:35:42;100776.16;;;31.11
45393;BMP280;31129;44.810;10.334;2022-07-23T07:38:07;100764.28;;;31.13
45393;BMP280;31129;44.810;10.334;2022-07-23T07:40:33;100767.03;;;31.25
45393;BMP280;31129;44.810;10.334;2022-07-23T07:42:59;100765.22;;;31.18
45393;BMP280;31129;44.810;10.334;2022-07-23T07:45:25;100760.88;;;31.28
45393;BMP280;31129;44.810;10.334;2022-07-23T07:47:51;100770.81;;;31.29
45393;BMP280;31129;44.810;10.334;2022-07-23T07:50:18;100762.69;;;31.35
45393;BMP280;31129;44.810;10.334;2022-07-23T07:52:44;100763.97;;;31.46
45393;BMP280;31129;44.810;10.334;2022-07-23T07:55:10;100764.31;;;31.52
45393;BMP280;31129;44.810;10.334;2022-07-23T07:57:36;100769.22;;;31.51
45393;BMP280;31129;44.810;10.334;2022-07-23T08:00:03;100767.59;;;31.60
45393;BMP280;31129;44.810;10.334;2022-07-23T08:05:07;100765.63;;;31.76
45393;BMP280;31129;44.810;10.334;2022-07-23T08:07:32;100761.88;;;31.85
45393;BMP280;31129;44.810;10.334;2022-07-23T08:09:58;100763.22;;;31.84
45393;BMP280;31129;44.810;10.334;2022-07-23T08:12:26;100768.97;;;31.86
45393;BMP280;31129;44.810;10.334;2022-07-23T08:14:52;100770.06;;;31.93
45393;BMP280;31129;44.810;10.334;2022-07-23T08:17:18;100775.28;;;31.98
45393;BMP280;31129;44.810;10.334;2022-07-23T08:19:43;100768.38;;;32.01
45393;BMP280;31129;44.810;10.334;2022-07-23T08:22:09;100762.94;;;32.19
45393;BMP280;31129;44.810;10.334;2022-07-23T08:24:34;100760.88;;;32.20
45393;BMP280;31129;44.810;10.334;2022-07-23T08:27:00;100779.88;;;32.19
45393;BMP280;31129;44.810;10.334;2022-07-23T08:29:25;100764.19;;;32.30
45393;BMP280;31129;44.810;10.334;2022-07-23T08:31:51;100768.72;;;32.35
45393;BMP280;31129;44.810;10.334;2022-07-23T08:34:16;100771.94;;;32.29
45393;BMP280;31129;44.810;10.334;2022-07-23T08:36:42;100769.09;;;32.15
45393;BMP280;31129;44.810;10.334;2022-07-23T08:39:07;100774.56;;;32.25
45393;BMP280;31129;44.810;10.334;2022-07-23T08:41:34;100780.00;;;32.07
45393;BMP280;31129;44.810;10.334;2022-07-23T08:43:59;100773.50;;;32.18
45393;BMP280;31129;44.810;10.334;2022-07-23T08:46:26;100779.16;;;32.46
45393;BMP280;31129;44.810;10.334;2022-07-23T08:48:54;100763.53;;;32.45
45393;BMP280;31129;44.810;10.334;2022-07-23T08:51:20;100775.06;;;32.49
45393;BMP280;31129;44.810;10.334;2022-07-23T08:53:46;100759.22;;;32.57
45393;BMP280;31129;44.810;10.334;2022-07-23T08:56:12;100765.50;;;32.69
45393;BMP280;31129;44.810;10.334;2022-07-23T08:58:39;100766.34;;;32.72
45393;BMP280;31129;44.810;10.334;2022-07-23T09:01:04;100763.22;;;32.66
45393;BMP280;31129;44.810;10.334;2022-07-23T09:03:32;100763.63;;;32.60
45393;BMP280;31129;44.810;10.334;2022-07-23T09:05:59;100760.88;;;32.76
45393;BMP280;31129;44.810;10.334;2022-07-23T09:08:46;100766.38;;;33.01
45393;BMP280;31129;44.810;10.334;2022-07-23T09:11:15;100765.03;;;33.18
45393;BMP280;31129;44.810;10.334;2022-07-23T09:13:42;100763.38;;;33.13
45393;BMP280;31129;44.810;10.334;2022-07-23T09:16:18;100768.72;;;33.07
45393;BMP280;31129;44.810;10.334;2022-07-23T09:23:53;100755.09;;;33.17
45393;BMP280;31129;44.810;10.334;2022-07-23T09:28:56;100753.88;;;33.06
45393;BMP280;31129;44.810;10.334;2022-07-23T09:31:23;100751.03;;;33.06
45393;BMP280;31129;44.810;10.334;2022-07-23T09:33:49;100753.03;;;33.04
45393;BMP280;31129;44.810;10.334;2022-07-23T09:36:15;100767.72;;;33.00
45393;BMP280;31129;44.810;10.334;2022-07-23T09:38:50;100749.47;;;33.03
45393;BMP280;31129;44.810;10.334;2022-07-23T09:41:16;100765.47;;;33.12
45393;BMP280;31129;44.810;10.334;2022-07-23T09:43:42;100744.38;;;33.15
45393;BMP280;31129;44.810;10.334;2022-07-23T09:48:49;100756.16;;;33.25
45393;BMP280;31129;44.810;10.334;2022-07-23T09:51:14;100750.06;;;33.31
45393;BMP280;31129;44.810;10.334;2022-07-23T09:53:44;100745.78;;;33.46
45393;BMP280;31129;44.810;10.334;2022-07-23T09:56:11;100739.41;;;33.45
45393;BMP280;31129;44.810;10.334;2022-07-23T09:58:39;100750.16;;;33.33
45393;BMP280;31129;44.810;10.334;2022-07-23T10:01:15;100736.47;;;33.59
45393;BMP280;31129;44.810;10.334;2022-07-23T10:03:43;100737.41;;;33.63
45393;BMP280;31129;44.810;10.334;2022-07-23T10:06:33;100740.94;;;33.64
45393;BMP280;31129;44.810;10.334;2022-07-23T10:09:32;100731.75;;;33.63
45393;BMP280;31129;44.810;10.334;2022-07-23T10:12:16;100737.41;;;33.63
45393;BMP280;31129;44.810;10.334;2022-07-23T10:15:01;100740.84;;;33.77
45393;BMP280;31129;44.810;10.334;2022-07-23T10:17:29;100729.69;;;33.81
45393;BMP280;31129;44.810;10.334;2022-07-23T10:19:55;100728.13;;;33.94
45393;BMP280;31129;44.810;10.334;2022-07-23T10:22:23;100728.78;;;33.93
45393;BMP280;31129;44.810;10.334;2022-07-23T10:34:02;100710.38;;;34.27
45393;BMP280;31129;44.810;10.334;2022-07-23T10:36:56;100709.13;;;34.48
45393;BMP280;31129;44.810;10.334;2022-07-23T10:41:51;100703.84;;;34.40
45393;BMP280;31129;44.810;10.334;2022-07-23T10:44:20;100698.91;;;34.41
45393;BMP280;31129;44.810;10.334;2022-07-23T10:47:02;100705.72;;;34.51
45393;BMP280;31129;44.810;10.334;2022-07-23T10:49:32;100696.38;;;34.31
45393;BMP280;31129;44.810;10.334;2022-07-23T10:54:42;100689.50;;;34.54
45393;BMP280;31129;44.810;10.334;2022-07-23T10:57:10;100687.97;;;34.68
45393;BMP280;31129;44.810;10.334;2022-07-23T11:02:29;100688.38;;;34.61
45393;BMP280;31129;44.810;10.334;2022-07-23T11:05:01;100678.72;;;34.68
45393;BMP280;31129;44.810;10.334;2022-07-23T11:07:26;100677.44;;;34.71
45393;BMP280;31129;44.810;10.334;2022-07-23T11:09:52;100676.19;;;34.94
45393;BMP280;31129;44.810;10.334;2022-07-23T11:17:25;100668.84;;;35.26
45393;BMP280;31129;44.810;10.334;2022-07-23T11:20:13;100669.06;;;35.12
45393;BMP280;31129;44.810;10.334;2022-07-23T11:25:11;100676.41;;;35.00
45393;BMP280;31129;44.810;10.334;2022-07-23T11:27:41;100660.31;;;35.06
45393;BMP280;31129;44.810;10.334;2022-07-23T11:30:09;100661.53;;;35.01
45393;BMP280;31129;44.810;10.334;2022-07-23T11:32:38;100651.59;;;35.00
45393;BMP280;31129;44.810;10.334;2022-07-23T11:35:27;100649.84;;;35.11
45393;BMP280;31129;44.810;10.334;2022-07-23T11:38:02;100652.84;;;35.34
45393;BMP280;31129;44.810;10.334;2022-07-23T11:40:29;100647.53;;;35.44
45393;BMP280;31129;44.810;10.334;2022-07-23T11:42:57;100636.97;;;35.47
45393;BMP280;31129;44.810;10.334;2022-07-23T11:45:29;100641.91;;;35.46
45393;BMP280;31129;44.810;10.334;2022-07-23T11:47:55;100637.59;;;35.45
45393;BMP280;31129;44.810;10.334;2022-07-23T11:50:32;100647.16;;;35.54
45393;BMP280;31129;44.810;10.334;2022-07-23T11:52:59;100638.06;;;35.79
45393;BMP280;31129;44.810;10.334;2022-07-23T11:55:25;100628.81;;;36.00
45393;BMP280;31129;44.810;10.334;2022-07-23T11:57:52;100627.81;;;36.35
45393;BMP280;31129;44.810;10.334;2022-07-23T12:00:21;100627.47;;;36.25
45393;BMP280;31129;44.810;10.334;2022-07-23T12:02:53;100615.47;;;36.29
45393;BMP280;31129;44.810;10.334;2022-07-23T12:05:21;100615.66;;;36.11
45393;BMP280;31129;44.810;10.334;2022-07-23T12:07:52;100618.22;;;36.03
45393;BMP280;31129;44.810;10.334;2022-07-23T12:10:30;100618.44;;;36.09
45393;BMP280;31129;44.810;10.334;2022-07-23T12:13:02;100611.84;;;36.26
45393;BMP280;31129;44.810;10.334;2022-07-23T12:15:35;100610.00;;;36.13
45393;BMP280;31129;44.810;10.334;2022-07-23T12:18:06;100612.22;;;36.15
45393;BMP280;31129;44.810;10.334;2022-07-23T12:20:45;100608.94;;;36.24
45393;BMP280;31129;44.810;10.334;2022-07-23T12:23:17;100606.47;;;36.36
45393;BMP280;31129;44.810;10.334;2022-07-23T12:25:48;100601.81;;;36.23
45393;BMP280;31129;44.810;10.334;2022-07-23T12:28:42;100592.19;;;36.34
45393;BMP280;31129;44.810;10.334;2022-07-23T12:31:25;100601.91;;;36.49
45393;BMP280;31129;44.810;10.334;2022-07-23T12:33:54;100605.78;;;36.38
45393;BMP280;31129;44.810;10.334;2022-07-23T12:36:37;100590.28;;;36.43
45393;BMP280;31129;44.810;10.334;2022-07-23T12:39:04;100581.66;;;36.62
45393;BMP280;31129;44.810;10.334;2022-07-23T12:41:50;100582.34;;;36.61
45393;BMP280;31129;44.810;10.334;2022-07-23T12:44:16;100589.25;;;36.30
45393;BMP280;31129;44.810;10.334;2022-07-23T12:46:48;100579.44;;;36.35
45393;BMP280;31129;44.810;10.334;2022-07-23T12:49:28;100579.69;;;36.69
45393;BMP280;31129;44.810;10.334;2022-07-23T12:51:59;100577.41;;;36.89
45393;BMP280;31129;44.810;10.334;2022-07-23T12:54:29;100580.34;;;36.91
45393;BMP280;31129;44.810;10.334;2022-07-23T12:56:54;100572.91;;;36.80
45393;BMP280;31129;44.810;10.334;2022-07-23T12:59:20;100569.34;;;36.80
45393;BMP280;31129;44.810;10.334;2022-07-23T13:02:07;100567.78;;;37.00
45393;BMP280;31129;44.810;10.334;2022-07-23T13:04:34;100570.03;;;37.34
45393;BMP280;31129;44.810;10.334;2022-07-23T13:07:03;100563.56;;;37.31
45393;BMP280;31129;44.810;10.334;2022-07-23T13:09:34;100567.44;;;37.14
45393;BMP280;31129;44.810;10.334;2022-07-23T13:12:06;100569.50;;;37.11
45393;BMP280;31129;44.810;10.334;2022-07-23T13:14:33;100575.19;;;37.11
45393;BMP280;31129;44.810;10.334;2022-07-23T13:16:58;100559.31;;;37.04
45393;BMP280;31129;44.810;10.334;2022-07-23T13:19:27;100560.41;;;36.91
45393;BMP280;31129;44.810;10.334;2022-07-23T13:21:53;100564.81;;;37.24
45393;BMP280;31129;44.810;10.334;2022-07-23T13:24:20;100574.34;;;37.35
45393;BMP280;31129;44.810;10.334;2022-07-23T13:26:46;100569.69;;;37.47
45393;BMP280;31129;44.810;10.334;2022-07-23T13:29:14;100572.03;;;37.27
45393;BMP280;31129;44.810;10.334;2022-07-23T13:31:40;100567.06;;;37.28
45393;BMP280;31129;44.810;10.334;2022-07-23T13:34:06;100571.50;;;37.35
45393;BMP280;31129;44.810;10.334;2022-07-23T13:36:32;100577.56;;;37.49
45393;BMP280;31129;44.810;10.334;2022-07-23T13:38:58;100572.81;;;37.57
45393;BMP280;31129;44.810;10.334;2022-07-23T13:41:24;100569.53;;;37.69
45393;BMP280;31129;44.810;10.334;2022-07-23T13:43:49;100566.19;;;37.78
45393;BMP280;31129;44.810;10.334;2022-07-23T13:46:15;100567.28;;;37.65
45393;BMP280;31129;44.810;10.334;2022-07-23T13:48:41;100554.09;;;37.50
45393;BMP280;31129;44.810;10.334;2022-07-23T13:51:08;100568.44;;;37.54
45393;BMP280;31129;44.810;10.334;2022-07-23T13:53:39;100554.97;;;37.57
45393;BMP280;31129;44.810;10.334;2022-07-23T13:56:05;100555.66;;;37.55
45393;BMP280;31129;44.810;10.334;2022-07-23T13:58:31;100562.16;;;37.30
45393;BMP280;31129;44.810;10.334;2022-07-23T14:00:57;100559.53;;;37.68
45393;BMP280;31129;44.810;10.334;2022-07-23T14:03:26;100559.41;;;38.61
45393;BMP280;31129;44.810;10.334;2022-07-23T14:05:52;100565.25;;;38.33
45393;BMP280;31129;44.810;10.334;2022-07-23T14:08:19;100555.63;;;38.51
45393;BMP280;31129;44.810;10.334;2022-07-23T14:10:48;100552.81;;;38.53
45393;BMP280;31129;44.810;10.334;2022-07-23T14:13:13;100548.25;;;38.39
45393;BMP280;31129;44.810;10.334;2022-07-23T14:15:42;100554.06;;;38.10
45393;BMP280;31129;44.810;10.334;2022-07-23T14:18:08;100553.34;;;38.11
45393;BMP280;31129;44.810;10.334;2022-07-23T14:20:37;100553.84;;;38.00
45393;BMP280;31129;44.810;10.334;2022-07-23T14:23:02;100545.06;;;37.90
45393;BMP280;31129;44.810;10.334;2022-07-23T14:25:29;100546.63;;;37.97